sensor_id;sensor_type;location;lat;lon;timestamp;pressure;altitude;pressure_sealevel;temperature;humidity
66887;BME280;67239;51.680;5.976;2023-04-25T00:00:15;100929.81;;;5.13;94.22
66887;BME280;67239;51.680;5.976;2023-04-25T00:02:43;100920.22;;;5.19;94.31
66887;BME280;67239;51.680;5.976;2023-04-25T00:05:10;100924.53;;;5.21;94.13
66887;BME280;67239;51.680;5.976;2023-04-25T00:07:38;100932.31;;;5.27;94.19
66887;BME280;67239;51.680;5.976;2023-04-25T00:10:06;100934.06;;;5.32;94.50
66887;BME280;67239;51.680;5.976;2023-04-25T00:12:33;100929.66;;;5.38;94.48
66887;BME280;67239;51.680;5.976;2023-04-25T00:15:01;100937.47;;;5.41;94.53
66887;BME280;67239;51.680;5.976;2023-04-25T00:17:28;100934.81;;;5.44;94.74
66887;BME280;67239;51.680;5.976;2023-04-25T00:19:56;100932.16;;;5.51;94.81
66887;BME280;67239;51.680;5.976;2023-04-25T00:22:24;100935.63;;;5.53;94.46
66887;BME280;67239;51.680;5.976;2023-04-25T00:24:51;100941.75;;;5.50;94.30
66887;BME280;67239;51.680;5.976;2023-04-25T00:27:19;100952.19;;;5.55;94.63
66887;BME280;67239;51.680;5.976;2023-04-25T00:29:46;100948.69;;;5.59;94.47
66887;BME280;67239;51.680;5.976;2023-04-25T00:32:13;100952.13;;;5.63;94.69
66887;BME280;67239;51.680;5.976;2023-04-25T00:34:40;100947.72;;;5.65;94.50
66887;BME280;67239;51.680;5.976;2023-04-25T00:37:07;100949.47;;;5.67;94.36
66887;BME280;67239;51.680;5.976;2023-04-25T00:39:35;100949.47;;;5.67;94.27
66887;BME280;67239;51.680;5.976;2023-04-25T00:42:02;100947.72;;;5.68;94.12
66887;BME280;67239;51.680;5.976;2023-04-25T00:44:30;100952.97;;;5.66;94.01
66887;BME280;67239;51.680;5.976;2023-04-25T00:47:00;100953.84;;;5.65;93.97
66887;BME280;67239;51.680;5.976;2023-04-25T00:49:28;100952.13;;;5.61;94.08
66887;BME280;67239;51.680;5.976;2023-04-25T00:51:56;100943.47;;;5.53;93.66
66887;BME280;67239;51.680;5.976;2023-04-25T00:54:24;100946.13;;;5.45;93.88
66887;BME280;67239;51.680;5.976;2023-04-25T00:56:52;100953.16;;;5.40;94.28
66887;BME280;67239;51.680;5.976;2023-04-25T00:59:20;100954.06;;;5.37;94.50
66887;BME280;67239;51.680;5.976;2023-04-25T01:01:47;100944.47;;;5.38;94.86
66887;BME280;67239;51.680;5.976;2023-04-25T01:04:15;100957.53;;;5.41;95.01
66887;BME280;67239;51.680;5.976;2023-04-25T01:06:42;100961.00;;;5.41;95.11
66887;BME280;67239;51.680;5.976;2023-04-25T01:09:10;100960.13;;;5.44;95.14
66887;BME280;67239;51.680;5.976;2023-04-25T01:11:37;100955.72;;;5.46;95.27
66887;BME280;67239;51.680;5.976;2023-04-25T01:14:07;100963.56;;;5.48;94.92
66887;BME280;67239;51.680;5.976;2023-04-25T01:16:34;100955.72;;;5.46;94.79
66887;BME280;67239;51.680;5.976;2023-04-25T01:19:09;100954.88;;;5.42;94.63
66887;BME280;67239;51.680;5.976;2023-04-25T01:21:39;100959.28;;;5.37;94.78
66887;BME280;67239;51.680;5.976;2023-04-25T01:24:07;100957.56;;;5.30;94.65
66887;BME280;67239;51.680;5.976;2023-04-25T01:26:35;100960.25;;;5.24;94.83
66887;BME280;67239;51.680;5.976;2023-04-25T01:29:04;100958.56;;;5.17;95.02
66887;BME280;67239;51.680;5.976;2023-04-25T01:31:32;100955.94;;;5.10;95.29
66887;BME280;67239;51.680;5.976;2023-04-25T01:34:01;100961.22;;;5.07;95.55
66887;BME280;67239;51.680;5.976;2023-04-25T01:36:28;100968.19;;;5.02;95.87
66887;BME280;67239;51.680;5.976;2023-04-25T01:38:56;100965.59;;;4.99;95.95
66887;BME280;67239;51.680;5.976;2023-04-25T01:41:23;100969.97;;;4.97;96.08
66887;BME280;67239;51.680;5.976;2023-04-25T01:43:51;100966.50;;;4.92;96.40
66887;BME280;67239;51.680;5.976;2023-04-25T01:46:18;100974.38;;;4.93;96.50
66887;BME280;67239;51.680;5.976;2023-04-25T01:48:46;100973.47;;;4.90;96.77
66887;BME280;67239;51.680;5.976;2023-04-25T01:51:14;100981.34;;;4.87;96.61
66887;BME280;67239;51.680;5.976;2023-04-25T01:53:42;100983.09;;;4.86;96.90
66887;BME280;67239;51.680;5.976;2023-04-25T01:56:11;100980.50;;;4.83;97.00
66887;BME280;67239;51.680;5.976;2023-04-25T01:58:38;100984.84;;;4.81;97.05
66887;BME280;67239;51.680;5.976;2023-04-25T02:01:31;100990.09;;;4.76;97.20
66887;BME280;67239;51.680;5.976;2023-04-25T02:04:13;100993.59;;;4.71;97.19
66887;BME280;67239;51.680;5.976;2023-04-25T02:06:41;100997.06;;;4.68;97.29
66887;BME280;67239;51.680;5.976;2023-04-25T02:09:08;100999.72;;;4.65;97.56
66887;BME280;67239;51.680;5.976;2023-04-25T02:11:40;100995.38;;;4.64;97.75
66887;BME280;67239;51.680;5.976;2023-04-25T02:14:26;101006.69;;;4.63;97.72
66887;BME280;67239;51.680;5.976;2023-04-25T02:17:16;100998.00;;;4.59;97.94
66887;BME280;67239;51.680;5.976;2023-04-25T02:19:44;101001.47;;;4.55;97.84
66887;BME280;67239;51.680;5.976;2023-04-25T02:22:12;101002.38;;;4.51;97.83
66887;BME280;67239;51.680;5.976;2023-04-25T02:24:40;100998.88;;;4.49;97.87
66887;BME280;67239;51.680;5.976;2023-04-25T02:27:07;100993.69;;;4.44;98.05
66887;BME280;67239;51.680;5.976;2023-04-25T02:29:35;100990.19;;;4.39;98.04
66887;BME280;67239;51.680;5.976;2023-04-25T02:32:02;100998.03;;;4.38;98.12
66887;BME280;67239;51.680;5.976;2023-04-25T02:34:29;100999.78;;;4.34;97.92
66887;BME280;67239;51.680;5.976;2023-04-25T02:37:00;101002.41;;;4.29;98.04
66887;BME280;67239;51.680;5.976;2023-04-25T02:39:27;101014.59;;;4.24;98.26
66887;BME280;67239;51.680;5.976;2023-04-25T02:41:55;101014.59;;;4.19;98.65
66887;BME280;67239;51.680;5.976;2023-04-25T02:44:22;101007.66;;;4.12;98.38
66887;BME280;67239;51.680;5.976;2023-04-25T02:46:49;101010.25;;;4.12;98.76
66887;BME280;67239;51.680;5.976;2023-04-25T02:49:16;101014.59;;;4.07;98.71
66887;BME280;67239;51.680;5.976;2023-04-25T02:51:52;101015.47;;;4.08;98.76
66887;BME280;67239;51.680;5.976;2023-04-25T02:54:19;101021.56;;;4.05;98.99
66887;BME280;67239;51.680;5.976;2023-04-25T02:56:47;101017.22;;;3.99;98.84
66887;BME280;67239;51.680;5.976;2023-04-25T02:59:20;101018.09;;;3.95;98.90
66887;BME280;67239;51.680;5.976;2023-04-25T03:01:47;101010.25;;;3.91;98.88
66887;BME280;67239;51.680;5.976;2023-04-25T03:04:14;101011.13;;;3.88;98.96
66887;BME280;67239;51.680;5.976;2023-04-25T03:06:41;101008.53;;;3.86;99.04
66887;BME280;67239;51.680;5.976;2023-04-25T03:09:08;101008.53;;;3.83;99.46
66887;BME280;67239;51.680;5.976;2023-04-25T03:11:38;101010.28;;;3.80;99.14
66887;BME280;67239;51.680;5.976;2023-04-25T03:14:05;101012.00;;;3.79;99.35
66887;BME280;67239;51.680;5.976;2023-04-25T03:16:33;101012.03;;;3.76;99.22
66887;BME280;67239;51.680;5.976;2023-04-25T03:19:01;101022.44;;;3.78;99.45
66887;BME280;67239;51.680;5.976;2023-04-25T03:21:30;101017.22;;;3.73;99.52
66887;BME280;67239;51.680;5.976;2023-04-25T03:24:02;101025.03;;;3.71;99.14
66887;BME280;67239;51.680;5.976;2023-04-25T03:26:30;101030.25;;;3.71;99.32
66887;BME280;67239;51.680;5.976;2023-04-25T03:28:59;101027.66;;;3.68;99.23
66887;BME280;67239;51.680;5.976;2023-04-25T03:31:26;101022.41;;;3.65;99.38
66887;BME280;67239;51.680;5.976;2023-04-25T03:33:53;101027.63;;;3.62;99.55
66887;BME280;67239;51.680;5.976;2023-04-25T03:36:22;101025.91;;;3.61;99.52
66887;BME280;67239;51.680;5.976;2023-04-25T03:38:49;101023.28;;;3.60;99.60
66887;BME280;67239;51.680;5.976;2023-04-25T03:41:17;101025.91;;;3.58;99.42
66887;BME280;67239;51.680;5.976;2023-04-25T03:43:48;101027.63;;;3.54;99.58
66887;BME280;67239;51.680;5.976;2023-04-25T03:46:16;101021.53;;;3.54;99.52
66887;BME280;67239;51.680;5.976;2023-04-25T03:48:45;101025.88;;;3.53;99.52
66887;BME280;67239;51.680;5.976;2023-04-25T03:51:19;101032.84;;;3.54;99.51
66887;BME280;67239;51.680;5.976;2023-04-25T03:53:47;101037.19;;;3.55;99.90
66887;BME280;67239;51.680;5.976;2023-04-25T03:56:21;101042.41;;;3.60;99.86
66887;BME280;67239;51.680;5.976;2023-04-25T03:58:56;101037.22;;;3.65;99.89
66887;BME280;67239;51.680;5.976;2023-04-25T04:01:26;101037.19;;;3.68;99.82
66887;BME280;67239;51.680;5.976;2023-04-25T04:03:54;101039.81;;;3.74;100.00
66887;BME280;67239;51.680;5.976;2023-04-25T04:06:23;101044.16;;;3.78;99.96
66887;BME280;67239;51.680;5.976;2023-04-25T04:08:57;101041.56;;;3.84;99.97
66887;BME280;67239;51.680;5.976;2023-04-25T04:11:24;101040.69;;;3.93;100.00
66887;BME280;67239;51.680;5.976;2023-04-25T04:13:51;101043.31;;;3.99;99.76
66887;BME280;67239;51.680;5.976;2023-04-25T04:16:19;101037.22;;;4.05;99.36
66887;BME280;67239;51.680;5.976;2023-04-25T04:18:47;101040.72;;;4.09;98.85
66887;BME280;67239;51.680;5.976;2023-04-25T04:21:14;101043.31;;;4.10;98.93
66887;BME280;67239;51.680;5.976;2023-04-25T04:23:41;101047.66;;;4.14;98.44
66887;BME280;67239;51.680;5.976;2023-04-25T04:26:09;101046.78;;;4.18;98.18
66887;BME280;67239;51.680;5.976;2023-04-25T04:28:55;101046.78;;;4.22;98.14
66887;BME280;67239;51.680;5.976;2023-04-25T04:31:32;101046.78;;;4.25;98.10
66887;BME280;67239;51.680;5.976;2023-04-25T04:34:00;101058.09;;;4.28;97.98
66887;BME280;67239;51.680;5.976;2023-04-25T04:36:29;101057.22;;;4.31;97.61
66887;BME280;67239;51.680;5.976;2023-04-25T04:39:00;101058.06;;;4.34;97.50
66887;BME280;67239;51.680;5.976;2023-04-25T04:41:38;101058.09;;;4.38;97.35
66887;BME280;67239;51.680;5.976;2023-04-25T04:44:24;101062.44;;;4.42;97.15
66887;BME280;67239;51.680;5.976;2023-04-25T04:47:11;101058.94;;;4.41;96.56
66887;BME280;67239;51.680;5.976;2023-04-25T04:50:10;101072.84;;;4.45;96.36
66887;BME280;67239;51.680;5.976;2023-04-25T04:52:56;101076.34;;;4.42;95.80
66887;BME280;67239;51.680;5.976;2023-04-25T04:55:43;101085.94;;;4.42;95.39
66887;BME280;67239;51.680;5.976;2023-04-25T04:58:29;101082.44;;;4.41;95.24
66887;BME280;67239;51.680;5.976;2023-04-25T05:01:35;101087.56;;;4.97;93.65
66887;BME280;67239;51.680;5.976;2023-04-25T05:04:20;101091.78;;;5.24;92.28
66887;BME280;67239;51.680;5.976;2023-04-25T05:07:06;101093.16;;;5.92;90.41
66887;BME280;67239;51.680;5.976;2023-04-25T05:10:03;101088.25;;;6.64;87.41
66887;BME280;67239;51.680;5.976;2023-04-25T05:12:59;101095.28;;;8.01;82.93
66887;BME280;67239;51.680;5.976;2023-04-25T05:16:02;101090.91;;;9.01;78.44
66887;BME280;67239;51.680;5.976;2023-04-25T05:18:55;101093.88;;;9.69;75.08
66887;BME280;67239;51.680;5.976;2023-04-25T05:21:28;101099.25;;;10.40;72.09
66887;BME280;67239;51.680;5.976;2023-04-25T05:24:09;101099.72;;;11.50;67.62
66887;BME280;67239;51.680;5.976;2023-04-25T05:26:56;101107.91;;;12.55;64.68
66887;BME280;67239;51.680;5.976;2023-04-25T05:29:39;101111.25;;;13.34;61.78
66887;BME280;67239;51.680;5.976;2023-04-25T05:32:17;101108.63;;;14.03;58.24
66887;BME280;67239;51.680;5.976;2023-04-25T05:34:46;101114.03;;;13.77;58.00
66887;BME280;67239;51.680;5.976;2023-04-25T05:37:22;101116.88;;;12.22;60.74
66887;BME280;67239;51.680;5.976;2023-04-25T05:39:55;101119.53;;;11.36;61.82
66887;BME280;67239;51.680;5.976;2023-04-25T05:42:51;101122.88;;;10.43;64.76
66887;BME280;67239;51.680;5.976;2023-04-25T05:45:20;101121.81;;;9.75;67.18
66887;BME280;67239;51.680;5.976;2023-04-25T05:48:23;101135.97;;;9.28;69.19
66887;BME280;67239;51.680;5.976;2023-04-25T05:50:58;101135.63;;;9.00;70.37
66887;BME280;67239;51.680;5.976;2023-04-25T05:53:46;101137.81;;;8.78;72.10
66887;BME280;67239;51.680;5.976;2023-04-25T05:56:20;101144.28;;;8.58;72.60
66887;BME280;67239;51.680;5.976;2023-04-25T05:58:53;101138.47;;;8.36;73.44
66887;BME280;67239;51.680;5.976;2023-04-25T06:01:24;101135.16;;;8.24;74.52
66887;BME280;67239;51.680;5.976;2023-04-25T06:03:51;101144.88;;;8.19;74.89
66887;BME280;67239;51.680;5.976;2023-04-25T06:06:22;101150.22;;;8.13;74.49
66887;BME280;67239;51.680;5.976;2023-04-25T06:08:50;101151.25;;;8.01;74.39
66887;BME280;67239;51.680;5.976;2023-04-25T06:11:17;101153.13;;;7.93;74.76
66887;BME280;67239;51.680;5.976;2023-04-25T06:13:45;101153.16;;;7.90;75.08
66887;BME280;67239;51.680;5.976;2023-04-25T06:16:15;101154.09;;;7.87;75.21
66887;BME280;67239;51.680;5.976;2023-04-25T06:18:43;101150.63;;;7.85;75.28
66887;BME280;67239;51.680;5.976;2023-04-25T06:21:10;101148.00;;;7.85;75.60
66887;BME280;67239;51.680;5.976;2023-04-25T06:23:37;101148.88;;;7.86;74.92
66887;BME280;67239;51.680;5.976;2023-04-25T06:26:06;101156.78;;;7.83;75.00
66887;BME280;67239;51.680;5.976;2023-04-25T06:28:36;101157.59;;;7.88;75.62
66887;BME280;67239;51.680;5.976;2023-04-25T06:31:04;101157.47;;;7.97;75.51
66887;BME280;67239;51.680;5.976;2023-04-25T06:33:31;101159.00;;;8.11;75.22
66887;BME280;67239;51.680;5.976;2023-04-25T06:35:59;101165.84;;;8.21;73.64
66887;BME280;67239;51.680;5.976;2023-04-25T06:38:27;101164.88;;;8.27;71.89
66887;BME280;67239;51.680;5.976;2023-04-25T06:40:56;101166.63;;;8.28;72.67
66887;BME280;67239;51.680;5.976;2023-04-25T06:43:24;101171.84;;;8.29;71.88
66887;BME280;67239;51.680;5.976;2023-04-25T06:45:52;101177.16;;;8.26;71.87
66887;BME280;67239;51.680;5.976;2023-04-25T06:48:21;101191.25;;;8.20;72.06
66887;BME280;67239;51.680;5.976;2023-04-25T06:50:48;101185.31;;;8.06;72.11
66887;BME280;67239;51.680;5.976;2023-04-25T06:53:15;101188.91;;;8.00;72.80
66887;BME280;67239;51.680;5.976;2023-04-25T06:55:46;101189.69;;;8.07;72.10
66887;BME280;67239;51.680;5.976;2023-04-25T06:58:18;101190.38;;;8.21;71.10
66887;BME280;67239;51.680;5.976;2023-04-25T07:01:03;101184.09;;;8.32;72.00
66887;BME280;67239;51.680;5.976;2023-04-25T07:03:32;101183.03;;;8.44;71.48
66887;BME280;67239;51.680;5.976;2023-04-25T07:06:05;101195.22;;;8.49;71.06
66887;BME280;67239;51.680;5.976;2023-04-25T07:08:33;101197.84;;;8.49;70.94
66887;BME280;67239;51.680;5.976;2023-04-25T07:11:00;101191.63;;;8.55;70.85
66887;BME280;67239;51.680;5.976;2023-04-25T07:13:27;101195.88;;;8.62;69.57
66887;BME280;67239;51.680;5.976;2023-04-25T07:15:54;101190.47;;;8.72;69.84
66887;BME280;67239;51.680;5.976;2023-04-25T07:18:23;101192.00;;;8.85;69.18
66887;BME280;67239;51.680;5.976;2023-04-25T07:20:51;101206.72;;;8.95;68.32
66887;BME280;67239;51.680;5.976;2023-04-25T07:23:19;101202.06;;;9.11;67.81
66887;BME280;67239;51.680;5.976;2023-04-25T07:25:47;101211.59;;;9.17;66.23
66887;BME280;67239;51.680;5.976;2023-04-25T07:28:19;101212.53;;;9.13;65.39
66887;BME280;67239;51.680;5.976;2023-04-25T07:30:47;101223.16;;;9.10;65.79
66887;BME280;67239;51.680;5.976;2023-04-25T07:33:14;101216.16;;;9.07;64.96
66887;BME280;67239;51.680;5.976;2023-04-25T07:35:41;101223.75;;;9.24;65.59
66887;BME280;67239;51.680;5.976;2023-04-25T07:38:09;101222.56;;;9.39;66.17
66887;BME280;67239;51.680;5.976;2023-04-25T07:40:38;101229.38;;;9.51;66.02
66887;BME280;67239;51.680;5.976;2023-04-25T07:43:07;101224.84;;;9.59;66.05
66887;BME280;67239;51.680;5.976;2023-04-25T07:45:46;101225.63;;;9.63;63.77
66887;BME280;67239;51.680;5.976;2023-04-25T07:48:19;101233.53;;;9.63;62.04
66887;BME280;67239;51.680;5.976;2023-04-25T07:50:47;101232.56;;;9.67;61.73
66887;BME280;67239;51.680;5.976;2023-04-25T07:53:14;101240.06;;;9.87;60.84
66887;BME280;67239;51.680;5.976;2023-04-25T07:55:50;101237.09;;;10.03;59.82
66887;BME280;67239;51.680;5.976;2023-04-25T07:58:36;101244.06;;;10.05;59.20
66887;BME280;67239;51.680;5.976;2023-04-25T08:01:08;101243.97;;;10.08;61.11
66887;BME280;67239;51.680;5.976;2023-04-25T08:03:50;101254.38;;;10.16;59.82
66887;BME280;67239;51.680;5.976;2023-04-25T08:06:29;101256.16;;;10.16;60.69
66887;BME280;67239;51.680;5.976;2023-04-25T08:09:13;101257.75;;;10.23;59.55
66887;BME280;67239;51.680;5.976;2023-04-25T08:11:41;101260.44;;;10.20;59.60
66887;BME280;67239;51.680;5.976;2023-04-25T08:14:12;101262.16;;;10.22;59.24
66887;BME280;67239;51.680;5.976;2023-04-25T08:16:42;101262.75;;;10.34;58.58
66887;BME280;67239;51.680;5.976;2023-04-25T08:19:10;101267.94;;;10.40;58.40
66887;BME280;67239;51.680;5.976;2023-04-25T08:21:37;101273.13;;;10.43;57.28
66887;BME280;67239;51.680;5.976;2023-04-25T08:24:10;101266.22;;;10.36;56.67
66887;BME280;67239;51.680;5.976;2023-04-25T08:26:39;101272.53;;;10.29;57.46
66887;BME280;67239;51.680;5.976;2023-04-25T08:29:10;101277.97;;;10.21;58.09
66887;BME280;67239;51.680;5.976;2023-04-25T08:31:40;101279.75;;;10.20;58.26
66887;BME280;67239;51.680;5.976;2023-04-25T08:34:09;101283.81;;;10.35;57.83
66887;BME280;67239;51.680;5.976;2023-04-25T08:36:42;101280.63;;;10.60;55.84
66887;BME280;67239;51.680;5.976;2023-04-25T08:39:24;101284.47;;;10.84;55.55
66887;BME280;67239;51.680;5.976;2023-04-25T08:42:11;101283.31;;;10.96;55.18
66887;BME280;67239;51.680;5.976;2023-04-25T08:44:39;101291.69;;;10.78;53.39
66887;BME280;67239;51.680;5.976;2023-04-25T08:47:06;101292.28;;;10.51;52.53
66887;BME280;67239;51.680;5.976;2023-04-25T08:50:02;101308.00;;;10.14;53.23
66887;BME280;67239;51.680;5.976;2023-04-25T08:52:35;101304.94;;;9.91;54.99
66887;BME280;67239;51.680;5.976;2023-04-25T08:55:13;101308.53;;;9.87;55.05
66887;BME280;67239;51.680;5.976;2023-04-25T08:57:42;101302.22;;;9.96;54.02
66887;BME280;67239;51.680;5.976;2023-04-25T09:00:11;101301.53;;;9.86;53.93
66887;BME280;67239;51.680;5.976;2023-04-25T09:02:42;101303.31;;;9.84;53.75
66887;BME280;67239;51.680;5.976;2023-04-25T09:05:13;101309.13;;;10.02;54.42
66887;BME280;67239;51.680;5.976;2023-04-25T09:07:42;101306.13;;;10.19;54.29
66887;BME280;67239;51.680;5.976;2023-04-25T09:10:10;101316.06;;;10.48;52.20
66887;BME280;67239;51.680;5.976;2023-04-25T09:12:38;101326.88;;;10.75;52.72
66887;BME280;67239;51.680;5.976;2023-04-25T09:15:09;101322.59;;;11.07;51.54
66887;BME280;67239;51.680;5.976;2023-04-25T09:17:58;101325.56;;;11.29;51.82
66887;BME280;67239;51.680;5.976;2023-04-25T09:20:31;101329.91;;;11.32;52.02
66887;BME280;67239;51.680;5.976;2023-04-25T09:23:02;101335.22;;;11.30;50.95
66887;BME280;67239;51.680;5.976;2023-04-25T09:25:38;101333.69;;;11.22;50.88
66887;BME280;67239;51.680;5.976;2023-04-25T09:28:10;101350.28;;;11.27;51.54
66887;BME280;67239;51.680;5.976;2023-04-25T09:30:38;101345.75;;;11.32;51.08
66887;BME280;67239;51.680;5.976;2023-04-25T09:33:32;101348.16;;;11.41;51.71
66887;BME280;67239;51.680;5.976;2023-04-25T09:36:07;101349.72;;;11.48;51.36
66887;BME280;67239;51.680;5.976;2023-04-25T09:39:01;101350.38;;;11.58;50.08
66887;BME280;67239;51.680;5.976;2023-04-25T09:41:37;101356.03;;;11.43;49.86
66887;BME280;67239;51.680;5.976;2023-04-25T09:44:05;101351.34;;;11.19;50.84
66887;BME280;67239;51.680;5.976;2023-04-25T09:46:35;101357.75;;;11.09;51.14
66887;BME280;67239;51.680;5.976;2023-04-25T09:49:07;101364.19;;;10.97;52.40
66887;BME280;67239;51.680;5.976;2023-04-25T09:51:59;101361.13;;;11.14;51.43
66887;BME280;67239;51.680;5.976;2023-04-25T09:54:51;101353.31;;;11.10;50.20
66887;BME280;67239;51.680;5.976;2023-04-25T09:57:25;101377.28;;;11.00;51.23
66887;BME280;67239;51.680;5.976;2023-04-25T09:59:59;101377.41;;;10.96;50.78
66887;BME280;67239;51.680;5.976;2023-04-25T10:02:42;101374.47;;;11.08;51.10
66887;BME280;67239;51.680;5.976;2023-04-25T10:05:30;101364.38;;;11.26;51.14
66887;BME280;67239;51.680;5.976;2023-04-25T10:08:02;101376.88;;;11.17;52.28
66887;BME280;67239;51.680;5.976;2023-04-25T10:10:33;101374.25;;;11.17;50.83
66887;BME280;67239;51.680;5.976;2023-04-25T10:13:06;101388.72;;;11.39;47.96
66887;BME280;67239;51.680;5.976;2023-04-25T10:15:35;101381.16;;;11.59;47.64
66887;BME280;67239;51.680;5.976;2023-04-25T10:18:06;101384.59;;;11.61;51.46
66887;BME280;67239;51.680;5.976;2023-04-25T10:20:34;101386.22;;;11.67;52.59
66887;BME280;67239;51.680;5.976;2023-04-25T10:23:15;101379.03;;;11.72;48.46
66887;BME280;67239;51.680;5.976;2023-04-25T10:25:43;101392.41;;;11.66;46.70
66887;BME280;67239;51.680;5.976;2023-04-25T10:28:13;101384.94;;;11.49;47.33
66887;BME280;67239;51.680;5.976;2023-04-25T10:31:01;101381.31;;;11.17;48.50
66887;BME280;67239;51.680;5.976;2023-04-25T10:33:36;101396.84;;;10.92;47.54
66887;BME280;67239;51.680;5.976;2023-04-25T10:36:24;101400.97;;;11.03;47.66
66887;BME280;67239;51.680;5.976;2023-04-25T10:38:53;101395.69;;;11.03;46.81
66887;BME280;67239;51.680;5.976;2023-04-25T10:41:21;101402.75;;;11.03;46.52
66887;BME280;67239;51.680;5.976;2023-04-25T10:43:59;101397.75;;;10.89;47.91
66887;BME280;67239;51.680;5.976;2023-04-25T10:46:28;101407.03;;;10.68;47.50
66887;BME280;67239;51.680;5.976;2023-04-25T10:49:00;101403.91;;;10.49;47.45
66887;BME280;67239;51.680;5.976;2023-04-25T10:51:33;101411.97;;;10.43;47.93
66887;BME280;67239;51.680;5.976;2023-04-25T10:54:22;101412.91;;;10.38;49.59
66887;BME280;67239;51.680;5.976;2023-04-25T10:56:50;101403.25;;;10.39;48.24
66887;BME280;67239;51.680;5.976;2023-04-25T10:59:18;101405.84;;;10.42;48.76
66887;BME280;67239;51.680;5.976;2023-04-25T11:01:47;101411.88;;;10.47;49.35
66887;BME280;67239;51.680;5.976;2023-04-25T11:04:28;101412.56;;;10.57;49.75
66887;BME280;67239;51.680;5.976;2023-04-25T11:07:17;101403.72;;;10.60;49.49
66887;BME280;67239;51.680;5.976;2023-04-25T11:10:08;101404.66;;;10.57;50.91
66887;BME280;67239;51.680;5.976;2023-04-25T11:12:35;101401.22;;;10.52;50.05
66887;BME280;67239;51.680;5.976;2023-04-25T11:15:04;101403.00;;;10.50;50.24
66887;BME280;67239;51.680;5.976;2023-04-25T11:17:35;101406.44;;;10.55;50.28
66887;BME280;67239;51.680;5.976;2023-04-25T11:20:03;101401.50;;;10.79;51.74
66887;BME280;67239;51.680;5.976;2023-04-25T11:22:34;101403.88;;;10.93;50.41
66887;BME280;67239;51.680;5.976;2023-04-25T11:25:06;101398.84;;;11.19;48.70
66887;BME280;67239;51.680;5.976;2023-04-25T11:27:52;101386.56;;;11.53;48.13
66887;BME280;67239;51.680;5.976;2023-04-25T11:30:25;101402.31;;;11.91;47.94
66887;BME280;67239;51.680;5.976;2023-04-25T11:32:53;101387.59;;;12.15;47.33
66887;BME280;67239;51.680;5.976;2023-04-25T11:35:20;101398.31;;;12.10;47.10
66887;BME280;67239;51.680;5.976;2023-04-25T11:37:50;101403.75;;;12.04;42.90
66887;BME280;67239;51.680;5.976;2023-04-25T11:40:17;101403.91;;;12.00;44.33
66887;BME280;67239;51.680;5.976;2023-04-25T11:42:46;101407.44;;;11.99;45.31
66887;BME280;67239;51.680;5.976;2023-04-25T11:45:14;101418.09;;;11.94;45.44
66887;BME280;67239;51.680;5.976;2023-04-25T11:47:42;101420.41;;;11.73;45.29
66887;BME280;67239;51.680;5.976;2023-04-25T11:50:09;101415.53;;;11.56;47.35
66887;BME280;67239;51.680;5.976;2023-04-25T11:52:38;101422.97;;;11.40;48.92
66887;BME280;67239;51.680;5.976;2023-04-25T11:55:08;101431.22;;;11.26;49.74
66887;BME280;67239;51.680;5.976;2023-04-25T11:57:38;101425.34;;;11.15;50.87
66887;BME280;67239;51.680;5.976;2023-04-25T12:00:15;101441.50;;;11.01;48.72
66887;BME280;67239;51.680;5.976;2023-04-25T12:02:53;101448.09;;;10.80;47.02
66887;BME280;67239;51.680;5.976;2023-04-25T12:05:31;101433.50;;;10.63;48.54
66887;BME280;67239;51.680;5.976;2023-04-25T12:08:12;101439.88;;;10.53;49.22
66887;BME280;67239;51.680;5.976;2023-04-25T12:10:41;101444.84;;;10.67;48.20
66887;BME280;67239;51.680;5.976;2023-04-25T12:13:20;101443.84;;;10.72;48.59
66887;BME280;67239;51.680;5.976;2023-04-25T12:15:49;101441.06;;;10.79;48.70
66887;BME280;67239;51.680;5.976;2023-04-25T12:18:22;101428.53;;;10.90;48.95
66887;BME280;67239;51.680;5.976;2023-04-25T12:20:52;101435.84;;;11.18;49.57
66887;BME280;67239;51.680;5.976;2023-04-25T12:23:27;101436.38;;;11.67;50.14
66887;BME280;67239;51.680;5.976;2023-04-25T12:25:55;101435.63;;;11.98;50.02
66887;BME280;67239;51.680;5.976;2023-04-25T12:28:24;101440.91;;;12.31;50.24
66887;BME280;67239;51.680;5.976;2023-04-25T12:30:57;101432.28;;;12.56;46.36
66887;BME280;67239;51.680;5.976;2023-04-25T12:33:28;101437.09;;;12.71;45.03
66887;BME280;67239;51.680;5.976;2023-04-25T12:35:57;101437.88;;;12.75;45.40
66887;BME280;67239;51.680;5.976;2023-04-25T12:38:30;101428.94;;;12.79;43.59
66887;BME280;67239;51.680;5.976;2023-04-25T12:40:58;101435.84;;;12.85;44.90
66887;BME280;67239;51.680;5.976;2023-04-25T12:43:25;101442.34;;;12.73;44.49
66887;BME280;67239;51.680;5.976;2023-04-25T12:45:54;101438.19;;;12.94;44.66
66887;BME280;67239;51.680;5.976;2023-04-25T12:48:23;101434.88;;;12.87;44.85
66887;BME280;67239;51.680;5.976;2023-04-25T12:50:53;101443.50;;;12.64;43.76
66887;BME280;67239;51.680;5.976;2023-04-25T12:53:23;101448.38;;;12.48;44.21
66887;BME280;67239;51.680;5.976;2023-04-25T12:55:53;101445.78;;;12.45;44.90
66887;BME280;67239;51.680;5.976;2023-04-25T12:58:21;101452.69;;;12.51;44.90
66887;BME280;67239;51.680;5.976;2023-04-25T13:00:48;101450.25;;;12.43;45.48
66887;BME280;67239;51.680;5.976;2023-04-25T13:03:15;101456.59;;;12.37;44.03
66887;BME280;67239;51.680;5.976;2023-04-25T13:05:43;101450.78;;;12.24;44.17
66887;BME280;67239;51.680;5.976;2023-04-25T13:08:10;101453.72;;;12.14;44.64
66887;BME280;67239;51.680;5.976;2023-04-25T13:10:38;101462.03;;;11.98;45.43
66887;BME280;67239;51.680;5.976;2023-04-25T13:13:06;101461.53;;;11.84;46.42
66887;BME280;67239;51.680;5.976;2023-04-25T13:15:33;101460.94;;;11.71;47.19
66887;BME280;67239;51.680;5.976;2023-04-25T13:18:03;101479.94;;;11.50;48.42
66887;BME280;67239;51.680;5.976;2023-04-25T13:20:32;101475.31;;;11.23;48.50